Airfield :
LOGIN :

Register | Disclaimer

   EN    FR    IT 

 










Legend :    VFR   Marginal VFR   IFR   Intensive IFR   Very Intensive IFR
Visi :
Ceiling :
>= 8 km
>= 3000ft
5 to 8 km
1000 to 3000 ft
1500m to 5 km
500 to 1000 ft
800 to 1500m
200 to 500 ft
< 800m
< 200 ft
Symbols :   Thunderstorms  Fog  Heavy snow  Heavy precipitations  Wind > 20 kt
SIGMETs :     Misc.  Thunderstorms  Icing  Turbulence  Mountain Waves  Volcanic Ashes







- Airport Elevation : 1411 ft
- IATA code : SZG


LOWS - Salzburg

CURRENT METAR :
  • 181520Z 15003KT 080V180 9999 FEW042 SCT070 BKN100 21/15 Q1022 NOSIG

EXPIRED METARs :
  • 181450Z 12004KT 070V150 9999 FEW042 SCT070 BKN100 21/14 Q1022 NOSIG
  • 181420Z 16005KT 130V190 9999 FEW040 SCT065 BKN090 21/14 Q1022 NOSIG
  • 181350Z 16006KT 9999 FEW030 SCT065 BKN090 20/15 Q1022 NOSIG
  • 181320Z 16006KT 110V180 9999 FEW030 SCT065 BKN090 20/15 Q1022 NOSIG
  • 181250Z 17006KT 140V210 9999 FEW022 SCT030 BKN090 20/15 Q1023 NOSIG

TAF AMD TAF LOWS
Valid from the 18 at 13:00 until the 19 at 12:00 UTC


181351Z 1813/1912 16006KT 9999 FEW030 BKN070 TX24/1912Z TN15/1903Z
BECMG 1908/1910 31004KT
No reported NOTAMs for that airfield.



MET'MAP, your aeronautical weather chart ! - Copyright ORBIFLY December 2007 - Disclaimer

ORBIFLY MET'MAP TEAM :

Programming & Development : Alexandra Zaïnal
Concept & Development : Baudouin d'Aumeries
Co-Development & Prog : Marc-Olivier Méhu
Technical & hardware support : Manuel Goepfert

Contact : metmap@orbifly.com




SOURCES & CREDITS :

   NOAA